createdAt,value
2023-06-19T00:01:10.276Z,76.60
2023-06-19T00:03:37.213Z,76.30
2023-06-19T00:06:04.294Z,76.90
2023-06-19T00:08:31.846Z,76.30
2023-06-19T00:10:58.872Z,76.00
2023-06-19T00:13:25.717Z,75.60
2023-06-19T00:15:52.815Z,75.40
2023-06-19T00:18:20.955Z,75.30
2023-06-19T00:20:48.370Z,74.40
2023-06-19T00:23:18.189Z,74.40
2023-06-19T00:25:45.808Z,74.20
2023-06-19T00:28:14.998Z,74.20
2023-06-19T00:30:42.672Z,74.40
2023-06-19T00:33:09.883Z,74.70
2023-06-19T00:35:36.798Z,74.50
2023-06-19T00:38:03.914Z,73.50
2023-06-19T00:40:34.955Z,73.90
2023-06-19T00:43:03.140Z,73.80
2023-06-19T00:45:32.722Z,73.80
2023-06-19T00:48:00.734Z,74.00
2023-06-19T00:50:30.231Z,73.90
2023-06-19T00:52:57.995Z,74.00
2023-06-19T00:55:29.343Z,74.10
2023-06-19T00:57:56.383Z,74.10
2023-06-19T01:00:23.794Z,74.20
2023-06-19T01:02:51.036Z,74.30
2023-06-19T01:05:19.047Z,74.20
2023-06-19T01:07:45.909Z,74.20
2023-06-19T01:10:17.768Z,74.20
2023-06-19T01:13:00.422Z,74.30
2023-06-19T01:15:28.241Z,74.70
2023-06-19T01:17:58.570Z,74.70
2023-06-19T01:20:26.647Z,74.60
2023-06-19T01:22:57.846Z,74.80
2023-06-19T01:25:25.666Z,74.90
2023-06-19T01:27:53.162Z,75.20
2023-06-19T01:30:20.796Z,75.10
2023-06-19T01:33:03.702Z,74.80
2023-06-19T01:35:33.968Z,75.10
2023-06-19T01:38:02.947Z,75.30
2023-06-19T01:40:32.890Z,75.10
2023-06-19T01:43:02.268Z,75.40
2023-06-19T01:45:33.149Z,75.30
2023-06-19T01:48:00.145Z,75.50
2023-06-19T01:50:27.642Z,75.60
2023-06-19T01:52:54.539Z,75.70
2023-06-19T01:55:21.771Z,75.70
2023-06-19T01:57:49.000Z,75.90
2023-06-19T02:00:16.161Z,76.10
2023-06-19T02:02:43.232Z,76.10
2023-06-19T02:05:10.461Z,76.60
2023-06-19T02:07:37.529Z,76.20
2023-06-19T02:10:05.975Z,76.40
2023-06-19T02:12:32.940Z,76.40
2023-06-19T02:14:59.792Z,76.40
2023-06-19T02:17:26.721Z,76.80
2023-06-19T02:19:54.644Z,76.80
2023-06-19T02:22:21.550Z,77.10
2023-06-19T02:24:48.688Z,77.30
2023-06-19T02:27:17.044Z,77.20
2023-06-19T02:29:44.077Z,77.30
2023-06-19T02:32:11.089Z,77.60
2023-06-19T02:34:37.918Z,78.00
2023-06-19T02:37:05.024Z,77.80
2023-06-19T02:39:35.103Z,77.80
2023-06-19T02:42:02.393Z,78.00
2023-06-19T02:44:29.310Z,78.20
2023-06-19T02:46:56.243Z,78.30
2023-06-19T02:49:23.136Z,78.30
2023-06-19T02:51:50.085Z,78.50
2023-06-19T02:54:17.002Z,78.70
2023-06-19T02:56:43.929Z,79.20
2023-06-19T02:59:10.857Z,79.10
2023-06-19T03:01:37.767Z,79.20
2023-06-19T03:04:04.796Z,79.30
2023-06-19T03:06:31.948Z,79.70
2023-06-19T03:08:58.871Z,80.30
2023-06-19T03:11:25.735Z,79.90
2023-06-19T03:13:55.122Z,80.10
2023-06-19T03:16:22.517Z,80.10
2023-06-19T03:18:52.622Z,80.60
2023-06-19T03:21:21.139Z,80.80
2023-06-19T03:23:50.794Z,80.80
2023-06-19T03:26:19.558Z,81.20
2023-06-19T03:28:48.141Z,81.60
2023-06-19T03:31:16.292Z,81.90
2023-06-19T03:33:43.196Z,82.20
2023-06-19T03:36:10.181Z,82.20
2023-06-19T03:38:37.046Z,82.30
2023-06-19T03:41:04.027Z,82.60
2023-06-19T03:43:30.892Z,83.20
2023-06-19T03:45:57.797Z,83.10
2023-06-19T03:48:24.678Z,83.50
2023-06-19T03:50:51.724Z,83.40
2023-06-19T03:53:18.606Z,83.70
2023-06-19T03:55:45.647Z,83.80
2023-06-19T03:58:12.505Z,84.00
2023-06-19T04:00:39.427Z,84.00
2023-06-19T04:03:06.601Z,84.10
2023-06-19T04:05:33.543Z,84.20
2023-06-19T04:08:00.529Z,84.40
2023-06-19T04:10:27.588Z,84.60
2023-06-19T04:12:56.626Z,84.70
2023-06-19T04:15:23.874Z,84.90
2023-06-19T04:17:50.862Z,85.00
2023-06-19T04:20:17.804Z,85.10
2023-06-19T04:22:44.715Z,85.30
2023-06-19T04:25:12.388Z,85.50
2023-06-19T04:27:39.456Z,86.00
2023-06-19T04:30:09.973Z,86.00
2023-06-19T04:32:37.001Z,86.40
2023-06-19T04:35:04.411Z,86.40
2023-06-19T04:37:31.471Z,86.40
2023-06-19T04:39:58.707Z,87.00
2023-06-19T04:42:27.597Z,86.70
2023-06-19T04:44:54.724Z,87.10
2023-06-19T04:47:25.332Z,87.20
2023-06-19T04:49:53.842Z,87.10
2023-06-19T04:52:20.830Z,87.30
2023-06-19T04:54:49.502Z,87.80
2023-06-19T04:57:16.971Z,87.90
2023-06-19T04:59:45.314Z,88.40
2023-06-19T05:02:12.521Z,88.00
2023-06-19T05:04:39.607Z,88.40
2023-06-19T05:07:07.286Z,88.40
2023-06-19T05:09:34.097Z,88.40
2023-06-19T05:12:01.006Z,88.50
2023-06-19T05:14:27.850Z,88.80
2023-06-19T05:16:54.862Z,88.70
2023-06-19T05:19:21.824Z,89.30
2023-06-19T05:21:48.664Z,89.40
2023-06-19T05:24:15.646Z,89.50
2023-06-19T05:26:42.523Z,90.00
2023-06-19T05:29:09.876Z,90.00
2023-06-19T05:31:36.887Z,90.70
2023-06-19T05:34:04.534Z,90.80
2023-06-19T05:36:34.781Z,91.20
2023-06-19T05:39:01.588Z,91.30
2023-06-19T05:41:28.392Z,91.40
2023-06-19T05:43:55.237Z,91.40
2023-06-19T05:46:22.200Z,92.00
2023-06-19T05:48:49.204Z,92.40
2023-06-19T05:51:16.177Z,92.60
2023-06-19T05:53:43.040Z,92.90
2023-06-19T05:56:09.952Z,93.20
2023-06-19T05:58:36.816Z,93.40
2023-06-19T06:01:04.215Z,93.70
2023-06-19T06:03:32.056Z,94.10
2023-06-19T06:06:04.293Z,94.50
2023-06-19T06:08:31.832Z,94.60
2023-06-19T06:10:59.110Z,94.80
2023-06-19T06:13:25.978Z,95.00
2023-06-19T06:15:52.909Z,95.20
2023-06-19T06:18:20.363Z,95.40
2023-06-19T06:20:47.291Z,95.50
2023-06-19T06:23:14.359Z,95.90
2023-06-19T06:25:41.323Z,95.80
2023-06-19T06:28:08.281Z,95.70
2023-06-19T06:30:37.673Z,95.70
2023-06-19T06:33:04.828Z,95.60
2023-06-19T06:35:31.870Z,95.60
2023-06-19T06:37:58.737Z,95.90
2023-06-19T06:40:25.956Z,95.90
2023-06-19T06:42:54.432Z,96.00
2023-06-19T06:45:21.486Z,96.50
2023-06-19T06:47:48.720Z,96.60
2023-06-19T06:50:15.703Z,96.30
2023-06-19T06:52:42.609Z,96.60
2023-06-19T06:55:10.746Z,96.40
2023-06-19T06:57:37.647Z,96.40
2023-06-19T07:00:12.553Z,96.40
2023-06-19T07:02:41.364Z,97.10
2023-06-19T07:05:11.875Z,97.10
2023-06-19T07:07:38.943Z,97.10
2023-06-19T07:10:06.737Z,97.10
2023-06-19T07:12:34.051Z,97.50
2023-06-19T07:15:00.994Z,98.10
2023-06-19T07:17:27.884Z,98.00
2023-06-19T07:19:54.764Z,97.90
2023-06-19T07:22:21.796Z,97.60
2023-06-19T07:24:48.712Z,97.70
2023-06-19T07:27:15.717Z,97.70
2023-06-19T07:29:42.588Z,97.60
2023-06-19T07:32:09.487Z,97.80
2023-06-19T07:34:36.887Z,97.70
2023-06-19T07:37:05.636Z,97.90
2023-06-19T07:39:32.741Z,98.10
2023-06-19T07:41:59.652Z,97.90
2023-06-19T07:44:26.509Z,98.10
2023-06-19T07:46:53.459Z,98.70
2023-06-19T07:49:20.361Z,98.60
2023-06-19T07:51:47.265Z,98.30
2023-06-19T07:54:14.205Z,98.70
2023-06-19T07:56:43.653Z,98.80
2023-06-19T07:59:10.546Z,98.80
2023-06-19T08:01:37.473Z,99.00
2023-06-19T08:04:04.967Z,99.60
2023-06-19T08:06:32.000Z,98.90
2023-06-19T08:08:58.959Z,98.40
2023-06-19T08:11:25.885Z,97.60
2023-06-19T08:13:53.018Z,96.90
2023-06-19T08:16:20.055Z,95.90
2023-06-19T08:18:47.140Z,96.40
2023-06-19T08:21:14.795Z,97.00
2023-06-19T08:23:44.801Z,97.00
2023-06-19T08:26:12.196Z,96.90
2023-06-19T08:28:39.107Z,97.20
2023-06-19T08:31:06.061Z,97.60
2023-06-19T08:33:36.325Z,98.20
2023-06-19T08:36:03.453Z,98.90
2023-06-19T08:38:31.096Z,99.00
2023-06-19T08:40:58.022Z,99.70
2023-06-19T08:43:25.003Z,99.20
2023-06-19T08:46:12.405Z,99.40
2023-06-19T08:48:39.910Z,99.00
2023-06-19T08:51:07.394Z,99.50
2023-06-19T08:53:36.710Z,99.30
2023-06-19T08:56:04.351Z,99.50
2023-06-19T08:58:31.300Z,99.80
2023-06-19T09:01:01.380Z,99.90
2023-06-19T09:03:28.471Z,99.90
2023-06-19T09:05:55.493Z,99.90
2023-06-19T09:08:23.672Z,99.90
2023-06-19T09:11:12.118Z,99.90
2023-06-19T09:13:39.020Z,99.90
2023-06-19T09:16:08.335Z,99.90
2023-06-19T09:18:46.938Z,99.90
2023-06-19T09:21:19.485Z,99.90
2023-06-19T09:23:47.430Z,99.90
2023-06-19T09:26:19.786Z,99.90
2023-06-19T09:28:47.682Z,99.90
2023-06-19T09:31:14.652Z,99.90
2023-06-19T09:33:42.156Z,99.90
2023-06-19T09:36:09.212Z,99.90
2023-06-19T09:38:41.367Z,99.90
2023-06-19T09:41:08.484Z,99.90
2023-06-19T09:43:43.270Z,99.90
2023-06-19T09:46:11.930Z,99.90
2023-06-19T09:48:47.257Z,99.90
2023-06-19T09:51:24.763Z,99.90
2023-06-19T09:53:52.079Z,99.90
2023-06-19T09:56:22.986Z,99.90
2023-06-19T09:58:52.268Z,98.40
2023-06-19T10:01:19.859Z,98.20
2023-06-19T10:03:47.220Z,96.80
2023-06-19T10:06:17.020Z,96.60
2023-06-19T10:08:45.367Z,96.30
2023-06-19T10:11:12.711Z,96.40
2023-06-19T10:13:42.646Z,95.60
2023-06-19T10:16:20.556Z,95.00
2023-06-19T10:18:48.775Z,94.20
2023-06-19T10:21:20.372Z,92.80
2023-06-19T10:24:02.683Z,93.50
2023-06-19T10:26:34.813Z,93.50
2023-06-19T10:29:02.471Z,93.20
2023-06-19T10:31:32.183Z,93.00
2023-06-19T10:33:59.174Z,92.00
2023-06-19T10:36:27.319Z,92.30
2023-06-19T10:38:55.367Z,92.10
2023-06-19T10:41:27.394Z,92.50
2023-06-19T10:43:59.597Z,92.90
2023-06-19T10:46:31.354Z,92.80
2023-06-19T10:49:05.724Z,91.90
2023-06-19T10:51:36.980Z,92.60
2023-06-19T10:54:04.806Z,91.70
2023-06-19T10:56:35.037Z,91.70
2023-06-19T10:59:07.376Z,91.00
2023-06-19T11:01:35.470Z,91.20
2023-06-19T11:04:04.853Z,91.50
2023-06-19T11:06:32.903Z,92.10
2023-06-19T11:09:01.566Z,91.90
2023-06-19T11:11:39.558Z,91.90
2023-06-19T11:14:07.383Z,90.50
2023-06-19T11:16:35.687Z,90.60
2023-06-19T11:19:03.070Z,90.80
2023-06-19T11:21:41.042Z,90.30
2023-06-19T11:24:13.169Z,90.10
2023-06-19T11:26:53.003Z,89.30
2023-06-19T11:29:29.928Z,89.40
2023-06-19T11:32:35.977Z,87.90
2023-06-19T11:35:08.949Z,88.50
2023-06-19T11:37:37.773Z,88.60
2023-06-19T11:40:11.930Z,88.20
2023-06-19T11:43:05.516Z,87.30
2023-06-19T11:45:32.459Z,85.80
2023-06-19T11:47:59.350Z,88.50
2023-06-19T11:50:29.816Z,87.30
2023-06-19T11:52:58.564Z,85.30
2023-06-19T11:55:26.599Z,87.10
2023-06-19T11:57:53.416Z,85.20
2023-06-19T12:00:20.249Z,85.00
2023-06-19T12:02:50.006Z,83.20
2023-06-19T12:05:17.817Z,82.20
2023-06-19T12:07:44.745Z,83.90
2023-06-19T12:10:13.122Z,84.60
2023-06-19T12:12:40.225Z,83.90
2023-06-19T12:15:08.109Z,83.00
2023-06-19T12:17:35.274Z,81.50
2023-06-19T12:20:06.856Z,81.90
2023-06-19T12:22:36.715Z,81.40
2023-06-19T12:25:03.744Z,82.00
2023-06-19T12:27:31.739Z,80.10
2023-06-19T12:29:58.905Z,81.50
2023-06-19T12:32:28.376Z,81.80
2023-06-19T12:34:55.311Z,81.90
2023-06-19T12:37:22.511Z,81.00
2023-06-19T12:39:53.824Z,79.30
2023-06-19T12:42:20.951Z,81.00
2023-06-19T12:44:47.857Z,79.60
2023-06-19T12:47:16.253Z,79.60
2023-06-19T12:49:43.158Z,80.30
2023-06-19T12:52:10.202Z,79.50
2023-06-19T12:54:37.539Z,79.70
2023-06-19T12:57:04.794Z,79.10
2023-06-19T12:59:39.640Z,80.90
2023-06-19T13:02:07.182Z,83.20
2023-06-19T13:04:34.258Z,80.90
2023-06-19T13:07:01.134Z,81.90
2023-06-19T13:09:28.973Z,80.80
2023-06-19T13:11:55.901Z,84.30
2023-06-19T13:14:22.879Z,81.50
2023-06-19T13:16:50.479Z,81.50
2023-06-19T13:19:17.522Z,80.90
2023-06-19T13:21:44.850Z,80.10
2023-06-19T13:24:12.192Z,79.20
2023-06-19T13:26:39.200Z,80.60
2023-06-19T13:29:06.247Z,77.80
2023-06-19T13:31:33.625Z,76.60
2023-06-19T13:34:00.610Z,74.90
2023-06-19T13:36:28.165Z,75.90
2023-06-19T13:38:55.604Z,76.80
2023-06-19T13:41:24.821Z,78.10
2023-06-19T13:43:53.997Z,78.40
2023-06-19T13:46:23.070Z,78.50
2023-06-19T13:48:52.402Z,77.80
2023-06-19T13:51:20.986Z,78.50
2023-06-19T13:53:48.659Z,78.40
2023-06-19T13:56:18.771Z,76.20
2023-06-19T13:58:45.638Z,78.00
2023-06-19T14:01:12.654Z,80.40
2023-06-19T14:03:42.879Z,79.40
2023-06-19T14:06:10.031Z,77.90
2023-06-19T14:08:45.428Z,80.00
2023-06-19T14:11:12.768Z,77.50
2023-06-19T14:13:39.789Z,77.70
2023-06-19T14:16:09.932Z,76.90
2023-06-19T14:18:39.645Z,77.90
2023-06-19T14:21:06.687Z,76.40
2023-06-19T14:23:35.308Z,77.60
2023-06-19T14:26:02.160Z,77.20
2023-06-19T14:28:29.185Z,77.50
2023-06-19T14:30:56.069Z,78.10
2023-06-19T14:33:23.147Z,78.90
2023-06-19T14:35:52.171Z,78.60
2023-06-19T14:38:20.197Z,76.70
2023-06-19T14:40:47.196Z,75.00
2023-06-19T14:43:14.063Z,73.20
2023-06-19T14:48:25.069Z,74.20
2023-06-19T14:50:52.015Z,74.20
2023-06-19T14:53:18.915Z,73.40
2023-06-19T14:55:47.030Z,72.70
2023-06-19T14:58:18.200Z,72.50
2023-06-19T15:00:45.318Z,72.70
2023-06-19T15:03:13.210Z,72.50
2023-06-19T15:05:40.281Z,72.80
2023-06-19T15:08:09.225Z,73.40
2023-06-19T15:10:36.674Z,74.10
2023-06-19T15:13:03.647Z,74.80
2023-06-19T15:15:30.672Z,74.10
2023-06-19T15:17:58.827Z,72.00
2023-06-19T15:20:26.023Z,73.90
2023-06-19T15:22:53.159Z,72.10
2023-06-19T15:25:21.215Z,72.70
2023-06-19T15:27:48.211Z,71.10
2023-06-19T15:30:15.329Z,71.70
2023-06-19T15:32:42.568Z,71.40
2023-06-19T15:35:09.680Z,71.50
2023-06-19T15:37:36.567Z,70.50
2023-06-19T15:40:09.262Z,70.50
2023-06-19T15:42:37.645Z,69.40
2023-06-19T15:45:05.592Z,69.30
2023-06-19T15:47:35.735Z,70.50
2023-06-19T15:50:02.676Z,70.80
2023-06-19T15:52:29.881Z,70.70
2023-06-19T15:54:56.896Z,70.80
2023-06-19T15:57:23.795Z,70.20
2023-06-19T15:59:52.969Z,70.30
2023-06-19T16:02:20.659Z,70.60
2023-06-19T16:04:49.932Z,71.00
2023-06-19T16:07:17.031Z,70.70
2023-06-19T16:09:54.484Z,70.80
2023-06-19T16:12:22.438Z,68.70
2023-06-19T16:14:49.597Z,69.50
2023-06-19T16:17:16.690Z,69.90
2023-06-19T16:19:43.629Z,70.30
2023-06-19T16:22:12.085Z,70.30
2023-06-19T16:24:42.613Z,71.10
2023-06-19T16:27:10.168Z,70.10
2023-06-19T16:29:37.321Z,71.40
2023-06-19T16:32:10.190Z,71.10
2023-06-19T16:34:38.056Z,70.70
2023-06-19T16:37:05.741Z,71.10
2023-06-19T16:39:32.922Z,71.00
2023-06-19T16:41:59.766Z,71.50
2023-06-19T16:44:26.841Z,72.80
2023-06-19T16:46:53.802Z,72.90
2023-06-19T16:49:23.994Z,74.00
2023-06-19T16:51:51.097Z,74.00
2023-06-19T16:54:18.145Z,73.20
2023-06-19T16:56:45.105Z,73.10
2023-06-19T16:59:12.027Z,73.30
2023-06-19T17:01:39.108Z,73.70
2023-06-19T17:04:07.814Z,73.50
2023-06-19T17:06:36.102Z,73.50
2023-06-19T17:09:03.238Z,74.00
2023-06-19T17:11:30.292Z,73.40
2023-06-19T17:13:57.313Z,74.00
2023-06-19T17:16:24.310Z,73.90
2023-06-19T17:18:51.729Z,73.40
2023-06-19T17:21:18.586Z,74.40
2023-06-19T17:23:46.786Z,73.70
2023-06-19T17:26:13.794Z,73.40
2023-06-19T17:28:40.655Z,74.00
2023-06-19T17:31:08.654Z,73.70
2023-06-19T17:33:35.638Z,73.60
2023-06-19T17:36:04.184Z,74.40
2023-06-19T17:38:32.938Z,73.70
2023-06-19T17:40:59.888Z,73.70
2023-06-19T17:43:26.966Z,74.40
2023-06-19T17:45:55.477Z,74.00
2023-06-19T17:48:23.291Z,74.90
2023-06-19T17:50:50.457Z,74.70
2023-06-19T17:53:17.777Z,73.70
2023-06-19T17:55:44.765Z,74.40
2023-06-19T17:58:11.678Z,74.90
2023-06-19T18:00:39.240Z,74.50
2023-06-19T18:03:09.271Z,75.40
2023-06-19T18:05:36.640Z,75.10
2023-06-19T18:08:03.593Z,75.40
2023-06-19T18:10:31.228Z,76.60
2023-06-19T18:12:59.073Z,76.00
2023-06-19T18:15:26.419Z,74.70
2023-06-19T18:17:53.375Z,75.70
2023-06-19T18:20:20.544Z,76.60
2023-06-19T18:22:47.421Z,76.30
2023-06-19T18:25:14.425Z,75.90
2023-06-19T18:27:41.584Z,75.70
2023-06-19T18:30:09.398Z,76.20
2023-06-19T18:32:36.788Z,76.00
2023-06-19T18:35:03.863Z,76.40
2023-06-19T18:37:30.786Z,75.90
2023-06-19T18:39:57.785Z,75.50
2023-06-19T18:42:24.773Z,76.90
2023-06-19T18:44:51.972Z,75.60
2023-06-19T18:47:18.895Z,75.60
2023-06-19T18:49:47.250Z,75.50
2023-06-19T18:52:14.243Z,75.20
2023-06-19T18:54:43.000Z,75.40
2023-06-19T18:57:11.503Z,77.40
2023-06-19T18:59:38.534Z,77.90
2023-06-19T19:02:08.272Z,78.50
2023-06-19T19:04:38.422Z,79.50
2023-06-19T19:07:10.820Z,80.10
2023-06-19T19:09:40.908Z,79.50
2023-06-19T19:12:12.829Z,79.50
2023-06-19T19:14:42.243Z,79.80
2023-06-19T19:17:09.757Z,79.30
2023-06-19T19:19:39.402Z,78.90
2023-06-19T19:22:06.606Z,79.20
2023-06-19T19:24:33.533Z,78.80
2023-06-19T19:27:00.529Z,78.90
2023-06-19T19:29:30.706Z,80.20
2023-06-19T19:31:57.591Z,80.60
2023-06-19T19:34:26.209Z,81.20
2023-06-19T19:36:53.395Z,81.50
2023-06-19T19:39:20.312Z,80.70
2023-06-19T19:41:47.217Z,81.90
2023-06-19T19:44:14.306Z,81.90
2023-06-19T19:46:41.592Z,81.70
2023-06-19T19:49:11.273Z,82.20
2023-06-19T19:51:39.969Z,82.50
2023-06-19T19:54:07.171Z,81.70
2023-06-19T19:56:36.092Z,83.00
2023-06-19T19:59:02.949Z,82.90
2023-06-19T20:01:29.903Z,82.70
2023-06-19T20:03:57.154Z,83.20
2023-06-19T20:06:25.510Z,84.00
2023-06-19T20:08:52.354Z,83.00
2023-06-19T20:11:19.281Z,83.30
2023-06-19T20:13:46.234Z,84.10
2023-06-19T20:16:13.253Z,84.20
2023-06-19T20:18:40.189Z,84.70
2023-06-19T20:21:07.167Z,85.40
2023-06-19T20:23:34.097Z,85.20
2023-06-19T20:26:01.707Z,85.00
2023-06-19T20:28:28.618Z,85.20
2023-06-19T20:30:55.555Z,85.10
2023-06-19T20:33:22.917Z,85.30
2023-06-19T20:35:50.900Z,85.30
2023-06-19T20:38:20.677Z,86.00
2023-06-19T20:40:50.934Z,86.20
2023-06-19T20:43:20.929Z,86.50
2023-06-19T20:45:48.429Z,86.70
2023-06-19T20:48:15.452Z,86.10
2023-06-19T20:50:43.109Z,85.90
2023-06-19T20:53:10.099Z,86.80
2023-06-19T20:55:37.083Z,87.30
2023-06-19T20:58:05.927Z,87.70
2023-06-19T21:00:33.229Z,87.20
2023-06-19T21:03:00.950Z,87.10
2023-06-19T21:05:28.171Z,87.70
2023-06-19T21:07:55.099Z,87.40
2023-06-19T21:10:23.793Z,87.50
2023-06-19T21:12:51.532Z,88.10
2023-06-19T21:15:18.578Z,88.00
2023-06-19T21:17:45.673Z,88.30
2023-06-19T21:20:15.341Z,88.30
2023-06-19T21:22:42.221Z,88.70
2023-06-19T21:25:09.473Z,88.80
2023-06-19T21:27:36.405Z,89.20
2023-06-19T21:30:12.702Z,89.30
2023-06-19T21:32:39.574Z,88.60
2023-06-19T21:35:07.015Z,88.90
2023-06-19T21:37:33.902Z,89.70
2023-06-19T21:40:01.106Z,89.90
2023-06-19T21:42:28.019Z,89.60
2023-06-19T21:44:54.885Z,89.20
2023-06-19T21:47:21.870Z,89.30
2023-06-19T21:49:48.805Z,89.90
2023-06-19T21:52:15.683Z,90.20
2023-06-19T21:54:42.573Z,89.90
2023-06-19T21:57:09.807Z,90.40
2023-06-19T21:59:36.726Z,90.10
2023-06-19T22:02:03.830Z,90.20
2023-06-19T22:04:30.677Z,90.20
2023-06-19T22:06:57.605Z,90.60
2023-06-19T22:09:25.041Z,90.40
2023-06-19T22:11:54.894Z,90.60
2023-06-19T22:14:22.408Z,90.60
2023-06-19T22:16:49.255Z,90.70
2023-06-19T22:19:16.176Z,91.00
2023-06-19T22:21:43.214Z,90.90
2023-06-19T22:24:10.357Z,90.90
2023-06-19T22:26:40.341Z,91.20
2023-06-19T22:29:07.483Z,91.40
2023-06-19T22:31:34.534Z,91.20
2023-06-19T22:34:01.455Z,91.10
2023-06-19T22:36:28.315Z,91.60
2023-06-19T22:38:55.603Z,91.70
2023-06-19T22:41:22.501Z,91.70
2023-06-19T22:43:51.854Z,91.90
2023-06-19T22:46:18.758Z,91.80
2023-06-19T22:48:51.459Z,92.20
2023-06-19T22:51:18.480Z,92.10
2023-06-19T22:53:45.412Z,92.10
2023-06-19T22:56:12.775Z,92.40
2023-06-19T22:58:41.041Z,92.60
2023-06-19T23:01:12.137Z,92.80
2023-06-19T23:03:41.251Z,92.90
2023-06-19T23:06:11.859Z,93.10
2023-06-19T23:08:41.969Z,93.00
2023-06-19T23:11:10.584Z,93.40
2023-06-19T23:13:39.122Z,93.60
2023-06-19T23:16:10.743Z,93.70
2023-06-19T23:18:38.101Z,93.60
2023-06-19T23:21:06.532Z,94.00
2023-06-19T23:23:33.912Z,94.30
2023-06-19T23:26:01.587Z,94.20
2023-06-19T23:28:32.632Z,94.30
2023-06-19T23:31:00.220Z,94.60
2023-06-19T23:33:27.416Z,94.30
2023-06-19T23:35:57.631Z,94.70
2023-06-19T23:38:27.887Z,94.70
2023-06-19T23:40:57.780Z,95.10
2023-06-19T23:43:24.592Z,95.20
2023-06-19T23:45:52.598Z,95.60
2023-06-19T23:48:19.649Z,95.80
2023-06-19T23:50:46.528Z,95.80
2023-06-19T23:53:13.374Z,96.10
2023-06-19T23:55:40.297Z,96.10
2023-06-19T23:58:07.206Z,96.50
